createdAt,value
2018-04-15T00:00:00.523Z,49.80
2018-04-15T00:01:00.197Z,50.40
2018-04-15T00:02:00.688Z,50.00
2018-04-15T00:02:59.739Z,50.90
2018-04-15T00:04:00.220Z,50.30
2018-04-15T00:05:01.265Z,51.80
2018-04-15T00:06:00.286Z,51.80
2018-04-15T00:07:00.111Z,52.20
2018-04-15T00:07:59.919Z,50.20
2018-04-15T00:08:59.448Z,50.90
2018-04-15T00:10:00.332Z,50.30
2018-04-15T00:11:00.691Z,55.60
2018-04-15T00:11:59.813Z,50.10
2018-04-15T00:12:59.281Z,48.90
2018-04-15T00:13:59.778Z,50.20
2018-04-15T00:14:59.261Z,50.90
2018-04-15T00:16:01.985Z,51.20
2018-04-15T00:17:06.609Z,52.10
2018-04-15T00:18:00.059Z,51.90
2018-04-15T00:18:59.969Z,49.50
2018-04-15T00:19:59.107Z,47.60
2018-04-15T00:21:00.101Z,47.80
2018-04-15T00:22:00.454Z,50.10
2018-04-15T00:23:00.397Z,50.20
2018-04-15T00:24:00.660Z,50.40
2018-04-15T00:24:59.253Z,46.80
2018-04-15T00:26:00.341Z,48.40
2018-04-15T00:27:00.202Z,46.60
2018-04-15T00:28:00.828Z,49.10
2018-04-15T00:29:00.974Z,50.30
2018-04-15T00:30:00.973Z,49.50
2018-04-15T00:31:00.987Z,50.20
2018-04-15T00:31:58.940Z,50.50
2018-04-15T00:32:59.288Z,54.70
2018-04-15T00:33:59.557Z,46.20
2018-04-15T00:34:59.692Z,48.60
2018-04-15T00:36:00.660Z,51.70
2018-04-15T00:37:01.488Z,44.40
2018-04-15T00:38:02.023Z,47.80
2018-04-15T00:39:00.397Z,46.10
2018-04-15T00:39:59.242Z,51.60
2018-04-15T00:41:00.375Z,48.60
2018-04-15T00:41:59.799Z,48.40
2018-04-15T00:43:02.744Z,45.50
2018-04-15T00:43:59.936Z,48.50
2018-04-15T00:45:00.960Z,46.60
2018-04-15T00:46:01.263Z,46.50
2018-04-15T00:47:00.751Z,46.50
2018-04-15T00:48:00.886Z,48.20
2018-04-15T00:49:01.917Z,48.00
2018-04-15T00:50:00.053Z,48.50
2018-04-15T00:50:59.273Z,51.50
2018-04-15T00:51:59.065Z,49.60
2018-04-15T00:52:59.642Z,49.50
2018-04-15T00:53:59.006Z,48.20
2018-04-15T00:55:00.396Z,47.10
2018-04-15T00:55:59.954Z,45.50
2018-04-15T00:56:59.277Z,47.20
2018-04-15T00:58:00.654Z,49.70
2018-04-15T00:58:59.270Z,50.00
2018-04-15T00:59:59.086Z,50.60
2018-04-15T01:01:00.002Z,48.70
2018-04-15T01:02:00.632Z,48.60
2018-04-15T01:03:00.362Z,51.20
2018-04-15T01:04:00.450Z,48.20
2018-04-15T01:04:59.630Z,45.10
2018-04-15T01:05:59.589Z,45.80
2018-04-15T01:06:59.627Z,47.70
2018-04-15T01:08:00.437Z,47.90
2018-04-15T01:08:59.885Z,46.50
2018-04-15T01:10:00.556Z,48.20
2018-04-15T01:10:59.122Z,49.00
2018-04-15T01:11:59.900Z,48.50
2018-04-15T01:13:01.300Z,52.50
2018-04-15T01:14:01.566Z,49.40
2018-04-15T01:15:01.574Z,48.60
2018-04-15T01:15:59.244Z,52.30
2018-04-15T01:16:59.603Z,48.50
2018-04-15T01:17:59.073Z,50.30
2018-04-15T01:19:02.327Z,49.00
2018-04-15T01:20:01.893Z,48.80
2018-04-15T01:21:02.261Z,47.20
2018-04-15T01:21:59.577Z,49.50
2018-04-15T01:23:00.052Z,51.70
2018-04-15T01:23:59.900Z,49.60
2018-04-15T01:25:01.736Z,49.60
2018-04-15T01:26:04.752Z,49.70
2018-04-15T01:27:02.136Z,49.80
2018-04-15T01:27:59.144Z,51.90
2018-04-15T01:29:00.112Z,50.60
2018-04-15T01:29:59.319Z,50.00
2018-04-15T01:31:01.135Z,50.50
2018-04-15T01:31:59.236Z,49.90
2018-04-15T01:32:59.532Z,52.60
2018-04-15T01:34:00.873Z,51.20
2018-04-15T01:34:59.339Z,55.20
2018-04-15T01:36:00.413Z,54.50
2018-04-15T01:37:00.008Z,49.30
2018-04-15T01:37:59.612Z,53.30
2018-04-15T01:38:59.123Z,56.00
2018-04-15T01:39:59.249Z,51.50
2018-04-15T01:40:59.955Z,54.20
2018-04-15T01:41:59.856Z,51.20
2018-04-15T01:42:59.604Z,53.20
2018-04-15T01:44:02.320Z,55.00
2018-04-15T01:44:59.974Z,52.50
2018-04-15T01:46:00.258Z,54.10
2018-04-15T01:47:02.757Z,52.40
2018-04-15T01:48:03.201Z,53.70
2018-04-15T01:49:02.571Z,53.60
2018-04-15T01:50:00.513Z,50.80
2018-04-15T01:51:00.420Z,52.10
2018-04-15T01:52:00.019Z,52.70
2018-04-15T01:53:01.806Z,53.30
2018-04-15T01:54:00.276Z,53.00
2018-04-15T01:55:00.662Z,55.20
2018-04-15T01:55:59.097Z,55.90
2018-04-15T01:56:59.530Z,51.60
2018-04-15T01:58:00.032Z,53.50
2018-04-15T01:59:04.496Z,54.40
2018-04-15T01:59:59.839Z,54.40
2018-04-15T02:01:00.998Z,51.90
2018-04-15T02:01:59.889Z,51.60
2018-04-15T02:02:59.961Z,52.80
2018-04-15T02:03:59.572Z,56.00
2018-04-15T02:05:00.798Z,55.50
2018-04-15T02:05:58.846Z,53.60
2018-04-15T02:07:00.680Z,55.50
2018-04-15T02:07:59.872Z,50.70
2018-04-15T02:09:00.452Z,56.40
2018-04-15T02:10:00.050Z,53.60
2018-04-15T02:11:00.800Z,58.00
2018-04-15T02:12:00.497Z,52.50
2018-04-15T02:13:01.989Z,55.30
2018-04-15T02:14:01.463Z,55.20
2018-04-15T02:15:02.396Z,63.10
2018-04-15T02:15:59.893Z,57.80
2018-04-15T02:16:59.941Z,57.20
2018-04-15T02:18:00.603Z,58.00
2018-04-15T02:19:00.221Z,59.80
2018-04-15T02:20:00.298Z,56.20
2018-04-15T02:21:02.456Z,59.70
2018-04-15T02:22:10.778Z,60.00
2018-04-15T02:23:01.766Z,61.80
2018-04-15T02:24:00.242Z,62.30
2018-04-15T02:25:01.877Z,60.80
2018-04-15T02:26:00.897Z,67.80
2018-04-15T02:26:59.843Z,62.00
2018-04-15T02:28:00.498Z,62.40
2018-04-15T02:29:01.692Z,65.60
2018-04-15T02:30:06.225Z,63.80
2018-04-15T02:31:02.116Z,62.00
2018-04-15T02:32:04.099Z,64.00
2018-04-15T02:33:04.154Z,62.00
2018-04-15T02:34:08.539Z,68.10
2018-04-15T02:35:01.319Z,65.80
2018-04-15T02:35:59.394Z,67.70
2018-04-15T02:37:00.403Z,67.10
2018-04-15T02:37:59.999Z,66.80
2018-04-15T02:39:04.241Z,67.90
2018-04-15T02:40:02.703Z,71.50
2018-04-15T02:40:59.606Z,72.00
2018-04-15T02:42:01.037Z,68.40
2018-04-15T02:43:00.871Z,65.40
2018-04-15T02:44:00.330Z,69.00
2018-04-15T02:45:01.674Z,70.70
2018-04-15T02:46:00.683Z,67.80
2018-04-15T02:47:01.696Z,71.80
2018-04-15T02:48:02.944Z,66.50
2018-04-15T02:49:04.340Z,65.50
2018-04-15T02:50:00.584Z,67.30
2018-04-15T02:51:05.597Z,69.60
2018-04-15T02:52:00.272Z,66.80
2018-04-15T02:53:01.090Z,67.60
2018-04-15T02:54:00.371Z,67.00
2018-04-15T02:55:09.064Z,69.20
2018-04-15T02:56:02.491Z,68.80
2018-04-15T02:57:04.552Z,74.50
2018-04-15T02:58:00.612Z,73.80
2018-04-15T02:59:08.757Z,74.00
2018-04-15T03:00:00.309Z,74.00
2018-04-15T03:01:03.957Z,72.80
2018-04-15T03:02:01.527Z,76.20
2018-04-15T03:03:02.266Z,75.10
2018-04-15T03:04:00.416Z,75.10
2018-04-15T03:05:03.576Z,75.20
2018-04-15T03:06:03.840Z,69.70
2018-04-15T03:07:00.788Z,69.20
2018-04-15T03:08:03.770Z,74.50
2018-04-15T03:09:03.483Z,77.40
2018-04-15T03:10:00.037Z,77.30
2018-04-15T03:11:03.121Z,79.90
2018-04-15T03:12:02.609Z,78.70
2018-04-15T03:13:00.614Z,85.50
2018-04-15T03:14:03.835Z,81.10
2018-04-15T03:15:02.704Z,81.80
2018-04-15T03:16:03.294Z,79.40
2018-04-15T03:17:03.095Z,77.60
2018-04-15T03:18:00.443Z,80.90
2018-04-15T03:19:04.635Z,81.90
2018-04-15T03:20:00.639Z,77.30
2018-04-15T03:21:05.210Z,78.20
2018-04-15T03:21:59.961Z,84.10
2018-04-15T03:23:01.922Z,86.80
2018-04-15T03:23:59.299Z,85.20
2018-04-15T03:25:00.799Z,82.40
2018-04-15T03:25:59.743Z,80.80
2018-04-15T03:27:00.925Z,82.40
2018-04-15T03:28:00.975Z,88.20
2018-04-15T03:29:02.811Z,84.40
2018-04-15T03:30:02.576Z,87.90
2018-04-15T03:31:01.372Z,84.40
2018-04-15T03:32:00.385Z,80.20
2018-04-15T03:33:02.735Z,82.60
2018-04-15T03:34:00.991Z,87.00
2018-04-15T03:35:02.431Z,81.90
2018-04-15T03:36:02.625Z,83.40
2018-04-15T03:37:01.831Z,82.40
2018-04-15T03:38:04.160Z,83.80
2018-04-15T03:39:00.874Z,81.00
2018-04-15T03:40:02.678Z,83.10
2018-04-15T03:41:01.452Z,83.20
2018-04-15T03:42:02.987Z,83.40
2018-04-15T03:43:01.769Z,94.00
2018-04-15T03:44:08.010Z,92.50
2018-04-15T03:45:02.629Z,84.40
2018-04-15T03:46:02.976Z,88.80
2018-04-15T03:47:01.239Z,88.70
2018-04-15T03:48:04.954Z,89.20
2018-04-15T03:49:02.487Z,87.30
2018-04-15T03:50:02.612Z,89.60
2018-04-15T03:51:01.721Z,87.10
2018-04-15T03:52:02.887Z,85.60
2018-04-15T03:53:01.908Z,83.60
2018-04-15T03:54:02.797Z,87.50
2018-04-15T03:55:02.680Z,83.70
2018-04-15T03:56:02.305Z,86.60
2018-04-15T03:57:02.918Z,85.80
2018-04-15T03:58:02.685Z,90.50
2018-04-15T03:59:03.565Z,91.40
2018-04-15T04:00:01.273Z,93.40
2018-04-15T04:01:03.124Z,93.70
2018-04-15T04:02:02.206Z,96.90
2018-04-15T04:03:03.955Z,93.50
2018-04-15T04:04:01.319Z,105.80
2018-04-15T04:05:04.120Z,106.20
2018-04-15T04:06:01.292Z,104.10
2018-04-15T04:07:02.016Z,112.50
2018-04-15T04:08:00.668Z,103.50
2018-04-15T04:09:06.123Z,102.80
2018-04-15T04:10:00.545Z,103.50
2018-04-15T04:11:05.844Z,103.20
2018-04-15T04:12:00.154Z,103.40
2018-04-15T04:13:03.688Z,104.10
2018-04-15T04:14:02.086Z,96.50
2018-04-15T04:15:03.661Z,96.00
2018-04-15T04:16:04.173Z,94.40
2018-04-15T04:17:05.337Z,98.10
2018-04-15T04:18:03.855Z,101.60
2018-04-15T04:19:03.468Z,100.20
2018-04-15T04:20:04.201Z,105.80
2018-04-15T04:21:03.101Z,107.90
2018-04-15T04:22:03.095Z,111.00
2018-04-15T04:23:00.199Z,112.50
2018-04-15T04:24:04.715Z,114.40
2018-04-15T04:25:00.564Z,104.20
2018-04-15T04:26:02.880Z,102.00
2018-04-15T04:26:59.085Z,104.50
2018-04-15T04:28:00.609Z,105.70
2018-04-15T04:29:01.512Z,108.00
2018-04-15T04:29:59.757Z,112.30
2018-04-15T04:31:00.839Z,116.30
2018-04-15T04:32:04.135Z,113.20
2018-04-15T04:32:59.245Z,116.40
2018-04-15T04:34:02.969Z,118.70
2018-04-15T04:35:01.868Z,115.70
2018-04-15T04:36:06.098Z,106.70
2018-04-15T04:37:00.536Z,105.70
2018-04-15T04:38:08.564Z,111.10
2018-04-15T04:39:01.742Z,106.90
2018-04-15T04:40:06.324Z,112.50
2018-04-15T04:41:03.324Z,113.90
2018-04-15T04:42:06.896Z,106.10
2018-04-15T04:43:02.489Z,114.90
2018-04-15T04:44:02.660Z,122.50
2018-04-15T04:45:00.903Z,124.30
2018-04-15T04:46:02.490Z,112.90
2018-04-15T04:47:00.876Z,112.00
2018-04-15T04:48:01.599Z,119.60
2018-04-15T04:49:02.004Z,113.30
2018-04-15T04:50:02.267Z,121.40
2018-04-15T04:51:01.544Z,125.50
2018-04-15T04:52:03.828Z,126.50
2018-04-15T04:53:04.260Z,122.40
2018-04-15T04:54:03.491Z,126.00
2018-04-15T04:55:02.032Z,127.30
2018-04-15T04:56:03.194Z,137.80
2018-04-15T04:57:04.863Z,134.90
2018-04-15T04:58:03.738Z,129.80
2018-04-15T04:59:01.401Z,129.10
2018-04-15T05:00:05.000Z,140.70
2018-04-15T05:01:01.209Z,138.80
2018-04-15T05:02:00.269Z,138.00
2018-04-15T05:03:05.732Z,141.70
2018-04-15T05:04:04.177Z,128.70
2018-04-15T05:05:03.036Z,138.80
2018-04-15T05:06:06.522Z,135.20
2018-04-15T05:07:00.850Z,135.10
2018-04-15T05:08:02.510Z,151.00
2018-04-15T05:09:04.100Z,153.70
2018-04-15T05:10:04.221Z,149.20
2018-04-15T05:11:02.729Z,142.30
2018-04-15T05:12:05.931Z,149.90
2018-04-15T05:13:00.949Z,139.70
2018-04-15T05:14:04.429Z,147.20
2018-04-15T05:15:01.111Z,137.70
2018-04-15T05:17:01.872Z,144.50
2018-04-15T05:18:02.702Z,158.20
2018-04-15T05:19:02.408Z,169.40
2018-04-15T05:21:03.201Z,151.60
2018-04-15T05:22:04.678Z,158.00
2018-04-15T05:23:05.747Z,146.60
2018-04-15T05:24:09.107Z,154.60
2018-04-15T05:25:07.864Z,148.80
2018-04-15T05:26:02.792Z,159.30
2018-04-15T05:27:03.328Z,156.30
2018-04-15T05:28:05.680Z,163.10
2018-04-15T05:29:11.349Z,163.60
2018-04-15T05:30:02.116Z,148.70
2018-04-15T05:31:02.732Z,169.20
2018-04-15T05:33:10.179Z,155.10
2018-04-15T05:34:06.061Z,173.10
2018-04-15T05:35:10.910Z,173.50
2018-04-15T05:36:08.787Z,165.90
2018-04-15T05:37:06.635Z,165.10
2018-04-15T05:38:02.408Z,159.90
2018-04-15T05:39:07.919Z,165.20
2018-04-15T05:40:06.590Z,169.40
2018-04-15T05:41:05.558Z,175.80
2018-04-15T05:42:01.732Z,179.30
2018-04-15T05:43:14.557Z,162.90
2018-04-15T05:44:08.648Z,180.70
2018-04-15T05:46:02.438Z,184.90
2018-04-15T05:47:02.287Z,174.90
2018-04-15T05:48:08.783Z,172.40
2018-04-15T05:49:07.042Z,178.70
2018-04-15T05:50:00.509Z,182.00
2018-04-15T05:51:01.525Z,175.10
2018-04-15T05:52:01.195Z,189.40
2018-04-15T05:53:02.114Z,172.70
2018-04-15T05:54:04.093Z,180.80
2018-04-15T05:55:05.720Z,185.40
2018-04-15T05:56:08.272Z,170.60
2018-04-15T05:57:04.663Z,173.00
2018-04-15T05:58:05.518Z,167.60
2018-04-15T05:59:04.757Z,183.20
2018-04-15T06:00:02.271Z,174.50
2018-04-15T06:01:04.893Z,174.00
2018-04-15T06:02:05.670Z,185.50
2018-04-15T06:03:04.297Z,179.30
2018-04-15T06:04:08.370Z,202.40
2018-04-15T06:05:11.362Z,197.10
2018-04-15T06:06:04.181Z,192.70
2018-04-15T06:07:04.464Z,192.00
2018-04-15T06:08:03.016Z,181.20
2018-04-15T06:09:03.491Z,189.00
2018-04-15T06:10:02.141Z,187.90
2018-04-15T06:11:05.755Z,198.80
2018-04-15T06:12:02.200Z,193.00
2018-04-15T06:13:06.161Z,191.50
2018-04-15T06:14:04.547Z,189.60
2018-04-15T06:15:03.146Z,187.30
2018-04-15T06:16:04.777Z,180.20
2018-04-15T06:17:04.674Z,207.40
2018-04-15T06:18:05.138Z,198.50
2018-04-15T06:19:05.640Z,201.70
2018-04-15T06:20:04.846Z,180.50
2018-04-15T06:21:05.533Z,180.00
2018-04-15T06:22:06.601Z,180.20
2018-04-15T06:23:03.428Z,190.40
2018-04-15T06:24:01.639Z,171.30
2018-04-15T06:25:02.138Z,174.00
2018-04-15T06:26:03.125Z,192.40
2018-04-15T06:27:09.162Z,180.80
2018-04-15T06:28:02.158Z,183.80
2018-04-15T06:30:10.592Z,177.30
2018-04-15T06:31:03.320Z,185.90
2018-04-15T06:32:03.181Z,177.60
2018-04-15T06:34:03.543Z,181.40
2018-04-15T06:35:08.170Z,175.90
2018-04-15T06:36:03.217Z,178.30
2018-04-15T06:38:00.647Z,205.00
2018-04-15T06:39:04.158Z,185.50
2018-04-15T06:40:02.521Z,195.90
2018-04-15T06:41:02.770Z,186.50
2018-04-15T06:42:02.328Z,178.90
2018-04-15T06:43:01.743Z,190.30
2018-04-15T06:44:00.409Z,196.80
2018-04-15T06:45:03.303Z,173.80
2018-04-15T06:46:06.443Z,174.30
2018-04-15T06:47:01.223Z,178.20
2018-04-15T06:48:01.859Z,183.70
2018-04-15T06:49:02.065Z,181.70
2018-04-15T06:50:04.561Z,192.90
2018-04-15T06:51:03.918Z,183.60
2018-04-15T06:52:11.999Z,194.00
2018-04-15T06:53:01.624Z,184.80
2018-04-15T06:54:01.675Z,181.80
2018-04-15T06:55:07.553Z,184.50
2018-04-15T06:56:03.732Z,176.50
2018-04-15T06:57:05.917Z,181.70
2018-04-15T06:58:03.182Z,186.10
2018-04-15T06:59:02.205Z,173.20
2018-04-15T07:00:03.114Z,181.50
2018-04-15T07:01:03.886Z,183.60
2018-04-15T07:02:03.669Z,178.70
2018-04-15T07:03:02.085Z,184.30
2018-04-15T07:04:04.428Z,186.00
2018-04-15T07:05:02.123Z,188.30
2018-04-15T07:06:01.090Z,178.10
2018-04-15T07:07:05.250Z,172.80
2018-04-15T07:08:00.425Z,162.20
2018-04-15T07:09:00.890Z,161.10
2018-04-15T07:10:07.332Z,164.90
2018-04-15T07:11:02.593Z,162.70
2018-04-15T07:12:07.583Z,158.50
2018-04-15T07:13:07.043Z,158.40
2018-04-15T07:14:02.847Z,165.50
2018-04-15T07:15:01.812Z,166.50
2018-04-15T07:15:59.909Z,143.30
2018-04-15T07:17:02.885Z,163.10
2018-04-15T07:18:07.992Z,156.60
2018-04-15T07:19:03.179Z,156.00
2018-04-15T07:20:02.071Z,159.40
2018-04-15T07:21:04.578Z,153.10
2018-04-15T07:22:05.384Z,151.30
2018-04-15T07:23:04.173Z,139.90
2018-04-15T07:24:03.750Z,145.10
2018-04-15T07:25:05.447Z,152.50
2018-04-15T07:26:05.164Z,149.30
2018-04-15T07:27:01.831Z,141.40
2018-04-15T07:28:00.504Z,140.40
2018-04-15T07:29:02.713Z,139.30
2018-04-15T07:30:04.771Z,139.50
2018-04-15T07:31:20.033Z,132.10
2018-04-15T07:32:01.838Z,130.70
2018-04-15T07:33:06.412Z,128.30
2018-04-15T07:34:03.527Z,116.50
2018-04-15T07:35:02.300Z,119.40
2018-04-15T07:36:07.088Z,122.20
2018-04-15T07:37:05.401Z,125.90
2018-04-15T07:38:01.059Z,111.60
2018-04-15T07:39:02.782Z,104.40
2018-04-15T07:40:01.687Z,111.90
2018-04-15T07:41:04.378Z,105.00
2018-04-15T07:42:03.005Z,101.70
2018-04-15T07:43:03.240Z,95.40
2018-04-15T07:44:00.565Z,91.80
2018-04-15T07:45:05.080Z,105.20
2018-04-15T07:46:03.394Z,92.20
2018-04-15T07:47:02.939Z,92.30
2018-04-15T07:48:05.633Z,90.10
2018-04-15T07:49:03.061Z,90.80
2018-04-15T07:50:03.953Z,80.00
2018-04-15T07:51:04.396Z,92.90
2018-04-15T07:52:02.140Z,83.40
2018-04-15T07:53:04.573Z,81.60
2018-04-15T07:54:03.748Z,73.90
2018-04-15T07:55:04.269Z,69.20
2018-04-15T07:56:05.555Z,69.30
2018-04-15T07:57:08.457Z,68.90
2018-04-15T07:58:00.955Z,73.90
2018-04-15T07:59:02.105Z,72.30
2018-04-15T08:00:04.929Z,72.20
2018-04-15T08:01:03.955Z,63.30
2018-04-15T08:02:06.375Z,64.80
2018-04-15T08:03:04.175Z,64.60
2018-04-15T08:04:04.683Z,61.10
2018-04-15T08:05:05.549Z,59.90
2018-04-15T08:06:03.464Z,60.20
2018-04-15T08:07:07.654Z,63.30
2018-04-15T08:08:00.662Z,56.40
2018-04-15T08:09:03.423Z,56.30
2018-04-15T08:10:01.616Z,52.20
2018-04-15T08:11:02.136Z,55.20
2018-04-15T08:12:16.666Z,51.60
2018-04-15T08:13:06.379Z,50.70
2018-04-15T08:14:11.148Z,47.70
2018-04-15T08:15:10.627Z,44.30
2018-04-15T08:16:01.530Z,44.70
2018-04-15T08:17:05.662Z,43.00
2018-04-15T08:18:04.649Z,40.70
2018-04-15T08:19:11.726Z,41.60
2018-04-15T08:21:15.580Z,31.30
2018-04-15T08:23:04.302Z,31.00
2018-04-15T08:24:09.344Z,30.50
2018-04-15T08:25:08.296Z,27.20
2018-04-15T08:26:07.842Z,25.90
2018-04-15T08:27:07.787Z,25.30
2018-04-15T08:30:08.270Z,25.60
2018-04-15T08:31:12.256Z,23.30
2018-04-15T08:32:03.172Z,23.60
2018-04-15T08:33:00.302Z,23.20
2018-04-15T08:34:11.166Z,23.00
2018-04-15T08:35:08.546Z,23.50
2018-04-15T08:37:23.793Z,20.70
2018-04-15T08:38:04.188Z,20.80
2018-04-15T08:39:06.161Z,20.50
2018-04-15T08:40:13.929Z,18.90
2018-04-15T08:42:12.150Z,18.30
2018-04-15T08:43:06.562Z,17.10
2018-04-15T08:44:08.708Z,16.30
2018-04-15T08:45:08.879Z,15.80
2018-04-15T08:46:05.106Z,16.60
2018-04-15T08:48:08.320Z,16.60
2018-04-15T08:49:29.184Z,14.90
2018-04-15T08:51:20.597Z,16.70
2018-04-15T08:52:05.878Z,15.90
2018-04-15T08:56:05.039Z,16.30
2018-04-15T08:57:07.713Z,16.10
2018-04-15T08:59:03.921Z,13.30
2018-04-15T09:02:07.217Z,14.70
2018-04-15T09:03:09.822Z,14.50
2018-04-15T09:04:05.874Z,14.70
2018-04-15T09:06:17.842Z,12.70
2018-04-15T09:07:03.837Z,12.80
2018-04-15T09:08:04.657Z,13.80
2018-04-15T09:09:08.520Z,13.80
2018-04-15T09:10:03.717Z,13.50
2018-04-15T09:11:12.127Z,11.10
2018-04-15T09:12:19.171Z,11.00
2018-04-15T09:14:12.200Z,8.90
2018-04-15T09:16:04.821Z,10.60
2018-04-15T09:17:08.256Z,10.70
2018-04-15T09:18:07.822Z,12.00
2018-04-15T09:19:09.919Z,13.30
2018-04-15T09:20:08.125Z,12.60
2018-04-15T09:21:08.305Z,12.20
2018-04-15T09:23:04.943Z,9.30
2018-04-15T09:24:04.280Z,8.50
2018-04-15T09:25:03.025Z,8.40
2018-04-15T09:27:05.300Z,9.60
2018-04-15T09:28:08.860Z,9.90
2018-04-15T09:29:07.180Z,10.30
2018-04-15T09:30:04.618Z,11.20
2018-04-15T09:31:07.314Z,10.70
2018-04-15T09:32:06.890Z,9.30
2018-04-15T09:35:12.644Z,7.50
2018-04-15T09:36:09.762Z,7.50
2018-04-15T09:37:03.984Z,5.90
2018-04-15T09:38:06.789Z,6.10
2018-04-15T09:39:06.616Z,7.30
2018-04-15T09:40:04.798Z,7.20
2018-04-15T09:41:09.440Z,7.20
2018-04-15T09:43:31.765Z,7.30
2018-04-15T09:44:31.775Z,6.60
2018-04-15T09:45:31.780Z,6.00
2018-04-15T09:46:31.782Z,5.90
2018-04-15T09:47:31.853Z,6.20
2018-04-15T09:48:31.813Z,5.40
2018-04-15T09:49:31.908Z,4.70
2018-04-15T09:50:31.840Z,5.10
2018-04-15T09:51:31.900Z,5.50
2018-04-15T09:52:31.917Z,5.60
2018-04-15T09:53:31.900Z,6.10
2018-04-15T09:54:31.907Z,6.10
2018-04-15T09:55:31.935Z,6.70
2018-04-15T09:56:31.924Z,7.30
2018-04-15T09:57:31.961Z,6.70
2018-04-15T09:58:31.973Z,7.70
2018-04-15T09:59:31.981Z,7.60
2018-04-15T10:00:32.018Z,8.50
2018-04-15T10:01:32.717Z,8.40
2018-04-15T10:02:32.040Z,8.00
2018-04-15T10:03:32.688Z,8.30
2018-04-15T10:04:32.052Z,8.80
2018-04-15T10:05:32.040Z,9.00
2018-04-15T10:06:32.065Z,9.40
2018-04-15T10:07:32.069Z,10.00
2018-04-15T10:08:32.102Z,8.60
2018-04-15T10:09:32.141Z,9.00
2018-04-15T10:10:32.115Z,9.60
2018-04-15T10:11:32.112Z,9.90
2018-04-15T10:12:32.692Z,9.60
2018-04-15T10:13:32.138Z,9.30
2018-04-15T10:14:32.140Z,9.50
2018-04-15T10:15:32.153Z,9.10
2018-04-15T10:16:32.195Z,9.00
2018-04-15T10:17:32.204Z,9.30
2018-04-15T10:18:32.179Z,9.50
2018-04-15T10:19:32.225Z,8.90
2018-04-15T10:20:32.204Z,10.10
2018-04-15T10:21:32.211Z,8.50
2018-04-15T10:22:32.231Z,10.10
2018-04-15T10:23:32.232Z,9.80
2018-04-15T10:24:32.253Z,9.80
2018-04-15T10:25:32.240Z,9.60
2018-04-15T10:26:32.253Z,9.10
2018-04-15T10:27:33.212Z,9.10
2018-04-15T10:28:32.272Z,9.50
2018-04-15T10:29:33.199Z,8.40
2018-04-15T10:30:32.294Z,8.10
2018-04-15T10:31:32.294Z,9.10
2018-04-15T10:32:32.312Z,8.30
2018-04-15T10:33:32.306Z,8.50
2018-04-15T10:34:32.325Z,8.40
2018-04-15T10:35:32.325Z,8.10
2018-04-15T10:36:32.335Z,7.60
2018-04-15T10:37:32.340Z,8.00
2018-04-15T10:38:32.340Z,7.60
2018-04-15T10:39:32.355Z,10.90
2018-04-15T10:40:32.364Z,6.40
2018-04-15T10:41:32.394Z,6.60
2018-04-15T10:42:32.404Z,6.70
2018-04-15T10:43:32.398Z,6.30
2018-04-15T10:44:33.211Z,6.90
2018-04-15T10:45:32.428Z,6.20
2018-04-15T10:46:32.437Z,6.30
2018-04-15T10:47:32.431Z,5.50
2018-04-15T10:48:32.473Z,6.00
2018-04-15T10:49:32.485Z,5.70
2018-04-15T10:50:32.464Z,5.60
2018-04-15T10:51:32.470Z,4.80
2018-04-15T10:52:32.479Z,5.50
2018-04-15T10:53:32.498Z,5.70
2018-04-15T10:54:32.493Z,4.70
2018-04-15T10:55:32.515Z,5.30
2018-04-15T10:56:32.533Z,4.90
2018-04-15T10:57:32.529Z,5.80
2018-04-15T10:58:32.595Z,4.90
2018-04-15T10:59:32.549Z,4.90
2018-04-15T11:00:32.603Z,4.70
2018-04-15T11:01:32.571Z,5.20
2018-04-15T11:02:32.586Z,5.30
2018-04-15T11:03:32.599Z,4.70
2018-04-15T11:04:32.620Z,5.10
2018-04-15T11:05:32.673Z,4.70
2018-04-15T11:06:32.627Z,6.30
2018-04-15T11:07:32.654Z,4.50
2018-04-15T11:08:32.663Z,4.30
2018-04-15T11:09:32.661Z,4.40
2018-04-15T11:10:32.683Z,4.30
2018-04-15T11:11:32.690Z,4.10
2018-04-15T11:12:32.701Z,4.90
2018-04-15T11:13:32.703Z,4.20
2018-04-15T11:14:32.730Z,4.20
2018-04-15T11:15:32.736Z,4.80
2018-04-15T11:16:32.792Z,4.50
2018-04-15T11:17:32.807Z,4.70
2018-04-15T11:18:32.764Z,4.70
2018-04-15T11:19:32.769Z,4.40
2018-04-15T11:20:32.779Z,4.90
2018-04-15T11:21:32.822Z,4.80
2018-04-15T11:22:32.806Z,5.10
2018-04-15T11:23:32.810Z,5.20
2018-04-15T11:24:33.326Z,5.60
2018-04-15T11:25:32.856Z,5.30
2018-04-15T11:26:32.835Z,5.90
2018-04-15T11:27:32.862Z,5.30
2018-04-15T11:28:32.861Z,4.60
2018-04-15T11:29:32.861Z,4.20
2018-04-15T11:30:32.865Z,4.10
2018-04-15T11:31:32.887Z,4.00
2018-04-15T11:32:33.029Z,4.90
2018-04-15T11:33:32.892Z,5.30
2018-04-15T11:34:32.886Z,5.20
2018-04-15T11:35:34.248Z,5.50
2018-04-15T11:36:33.748Z,5.70
2018-04-15T11:37:32.922Z,5.20
2018-04-15T11:38:32.967Z,5.00
2018-04-15T11:39:32.935Z,5.90
2018-04-15T11:40:32.940Z,5.30
2018-04-15T11:41:32.945Z,4.80
2018-04-15T11:42:32.953Z,5.40
2018-04-15T11:43:32.982Z,5.40
2018-04-15T11:44:32.965Z,5.20
2018-04-15T11:45:32.975Z,5.70
2018-04-15T11:46:33.037Z,5.30
2018-04-15T11:47:32.994Z,5.40
2018-04-15T11:48:32.988Z,5.10
2018-04-15T11:49:33.006Z,5.10
2018-04-15T11:50:33.006Z,4.90
2018-04-15T11:51:33.153Z,5.60
2018-04-15T11:52:33.025Z,5.20
2018-04-15T11:53:33.033Z,5.00
2018-04-15T11:54:33.094Z,5.90
2018-04-15T11:55:33.749Z,6.10
2018-04-15T11:56:33.046Z,5.90
2018-04-15T11:57:33.039Z,5.20
2018-04-15T11:58:33.083Z,5.60
2018-04-15T11:59:33.059Z,5.20
2018-04-15T12:00:33.063Z,5.90
2018-04-15T12:01:33.067Z,6.10
2018-04-15T12:02:33.079Z,5.60
2018-04-15T12:03:33.086Z,6.90
2018-04-15T12:04:33.091Z,5.90
2018-04-15T12:05:33.105Z,5.60
2018-04-15T12:06:33.118Z,5.80
2018-04-15T12:07:33.109Z,5.30
2018-04-15T12:08:33.178Z,5.00
2018-04-15T12:09:33.108Z,5.50
2018-04-15T12:10:33.135Z,6.30
2018-04-15T12:11:33.118Z,5.10
2018-04-15T12:12:33.131Z,5.10
2018-04-15T12:13:33.130Z,4.80
2018-04-15T12:14:33.145Z,4.90
2018-04-15T12:15:33.156Z,5.50
2018-04-15T12:16:33.152Z,4.60
2018-04-15T12:17:33.164Z,4.30
2018-04-15T12:18:33.172Z,4.90
2018-04-15T12:19:33.172Z,4.60
2018-04-15T12:20:33.179Z,4.50
2018-04-15T12:21:33.182Z,4.50
2018-04-15T12:22:33.192Z,4.70
2018-04-15T12:23:33.195Z,4.50
2018-04-15T12:24:33.207Z,4.30
2018-04-15T12:25:33.205Z,5.40
2018-04-15T12:26:33.223Z,5.30
2018-04-15T12:27:33.212Z,4.60
2018-04-15T12:28:33.223Z,5.00
2018-04-15T12:29:33.235Z,4.80
2018-04-15T12:30:33.275Z,4.80
2018-04-15T12:31:33.292Z,5.10
2018-04-15T12:32:33.249Z,4.70
2018-04-15T12:33:33.286Z,5.00
2018-04-15T12:34:33.266Z,5.00
2018-04-15T12:35:33.300Z,4.60
2018-04-15T12:36:33.278Z,5.00
2018-04-15T12:37:33.274Z,5.10
2018-04-15T12:38:33.290Z,5.90
2018-04-15T12:39:33.289Z,4.90
2018-04-15T12:40:33.290Z,5.30
2018-04-15T12:41:33.300Z,5.70
2018-04-15T12:42:33.318Z,5.30
2018-04-15T12:43:33.315Z,6.00
2018-04-15T12:44:33.329Z,5.20
2018-04-15T12:45:33.328Z,5.70
2018-04-15T12:46:33.497Z,5.50
2018-04-15T12:47:33.336Z,5.30
2018-04-15T12:48:33.355Z,5.50
2018-04-15T12:49:33.374Z,5.70
2018-04-15T12:50:33.353Z,5.50
2018-04-15T12:51:33.357Z,5.10
2018-04-15T12:52:33.375Z,6.00
2018-04-15T12:53:33.439Z,6.00
2018-04-15T12:54:33.372Z,6.20
2018-04-15T12:55:33.439Z,6.90
2018-04-15T12:56:33.398Z,6.60
2018-04-15T12:57:33.387Z,7.80
2018-04-15T12:58:33.397Z,6.60
2018-04-15T12:59:33.412Z,7.30
2018-04-15T13:00:33.407Z,7.40
2018-04-15T13:01:33.415Z,7.90
2018-04-15T13:02:33.431Z,7.60
2018-04-15T13:03:33.422Z,7.10
2018-04-15T13:04:33.443Z,7.90
2018-04-15T13:05:33.450Z,8.10
2018-04-15T13:06:33.459Z,7.80
2018-04-15T13:07:33.461Z,8.90
2018-04-15T13:08:33.449Z,8.30
2018-04-15T13:09:33.490Z,8.10
2018-04-15T13:10:33.464Z,8.40
2018-04-15T13:11:33.478Z,8.70
2018-04-15T13:12:33.483Z,9.50
2018-04-15T13:13:33.507Z,8.80
2018-04-15T13:14:34.310Z,8.30
2018-04-15T13:15:33.488Z,8.90
2018-04-15T13:16:33.491Z,8.50
2018-04-15T13:17:33.669Z,8.90
2018-04-15T13:18:33.506Z,8.30
2018-04-15T13:19:34.025Z,8.60
2018-04-15T13:20:33.530Z,9.80
2018-04-15T13:21:33.531Z,11.30
2018-04-15T13:22:33.537Z,10.70